Time;durP1;ratioP1;P1;durP2;ratioP2;P2;SDS_P1;SDS_P2;PMS_P1;PMS_P2;Temp;Humidity;BMP_temperature;BMP_pressure;BME280_temperature;BME280_humidity;BME280_pressure;Samples;Min_cycle;Max_cycle;Signal;HPM_P1;HPM_P2
2021/01/16 00:00:17;;;;;;;2.10;1.50;;;;;;;-4.75;82.24;101803.06;5006608;28;20546;-70
2021/01/16 00:02:43;;;;;;;1.73;1.30;;;;;;;-4.75;82.33;101800.50;5005398;28;20477;-70
2021/01/16 00:05:10;;;;;;;1.30;1.20;;;;;;;-4.72;83.67;101794.72;5003173;28;20560;-71
2021/01/16 00:07:36;;;;;;;2.30;1.23;;;;;;;-4.73;83.27;101800.59;5008181;28;20207;-71
2021/01/16 00:10:03;;;;;;;3.03;1.40;;;;;;;-4.71;83.99;101805.00;5003637;28;20484;-71
2021/01/16 00:12:29;;;;;;;1.50;1.40;;;;;;;-4.72;84.20;101800.69;5006218;28;20587;-71
2021/01/16 00:14:55;;;;;;;2.23;1.43;;;;;;;-4.71;83.98;101801.53;5008871;28;20463;-70
2021/01/16 00:17:21;;;;;;;1.97;1.40;;;;;;;-4.73;84.15;101804.03;5009620;28;20280;-70
2021/01/16 00:19:47;;;;;;;2.03;1.43;;;;;;;-4.75;83.03;101797.97;5009184;28;20484;-70
2021/01/16 00:22:13;;;;;;;1.43;1.33;;;;;;;-4.73;83.33;101796.41;5004505;28;20224;-71
2021/01/16 00:24:39;;;;;;;2.30;1.50;;;;;;;-4.73;83.84;101798.03;5010793;28;20201;-70
2021/01/16 00:27:05;;;;;;;2.47;1.67;;;;;;;-4.73;84.18;101798.94;5006537;28;20200;-70
2021/01/16 00:29:32;;;;;;;1.43;1.30;;;;;;;-4.71;84.97;101792.25;5010284;28;20351;-71
2021/01/16 00:31:57;;;;;;;3.67;1.50;;;;;;;-4.71;84.42;101804.09;5003440;28;20468;-72
2021/01/16 00:34:23;;;;;;;2.37;1.50;;;;;;;-4.70;85.74;101796.53;5006683;28;20459;-70
2021/01/16 00:36:49;;;;;;;2.17;1.77;;;;;;;-4.69;85.31;101800.84;5004244;28;20205;-71
2021/01/16 00:39:15;;;;;;;2.27;1.50;;;;;;;-4.67;85.98;101806.03;5011211;28;20279;-71
2021/01/16 00:41:41;;;;;;;2.77;1.80;;;;;;;-4.70;85.18;101804.19;5010764;28;20225;-70
2021/01/16 00:44:08;;;;;;;2.20;1.53;;;;;;;-4.70;84.84;101808.41;5010298;28;20264;-70
2021/01/16 00:46:34;;;;;;;2.03;1.83;;;;;;;-4.71;83.77;101821.91;5006471;28;20632;-70
2021/01/16 00:49:00;;;;;;;2.37;1.80;;;;;;;-4.68;85.43;101807.69;5008890;28;20448;-71
2021/01/16 00:51:26;;;;;;;1.37;1.10;;;;;;;-4.71;84.06;101810.09;5008568;28;20492;-71
2021/01/16 00:53:52;;;;;;;1.67;1.50;;;;;;;-4.70;82.91;101811.81;5005889;28;20451;-71
2021/01/16 00:56:17;;;;;;;1.87;1.60;;;;;;;-4.70;83.29;101822.00;5005026;28;20686;-71
2021/01/16 00:59:01;;;;;;;1.77;1.27;;;;;;;-4.68;83.59;101825.50;5006381;28;20196;-70
2021/01/16 01:01:39;;;;;;;2.40;1.63;;;;;;;-4.72;82.56;101826.13;5003464;28;20475;-70
2021/01/16 01:04:08;;;;;;;2.13;1.63;;;;;;;-4.71;82.67;101827.00;5001991;28;20536;-70
2021/01/16 01:06:34;;;;;;;2.23;1.70;;;;;;;-4.71;82.60;101829.53;5008621;28;20502;-70
2021/01/16 01:09:00;;;;;;;2.73;1.43;;;;;;;-4.72;82.37;101831.22;5005888;28;20459;-70
2021/01/16 01:11:26;;;;;;;2.17;1.57;;;;;;;-4.69;84.43;101826.31;5002302;28;20205;-70
2021/01/16 01:13:52;;;;;;;1.67;1.33;;;;;;;-4.72;82.41;101827.81;5007938;28;20208;-70
2021/01/16 01:16:17;;;;;;;2.87;1.83;;;;;;;-4.76;82.37;101830.19;5008281;28;20205;-70
2021/01/16 01:18:44;;;;;;;2.13;1.40;;;;;;;-4.72;83.32;101823.59;5005652;28;20213;-70
2021/01/16 01:21:10;;;;;;;1.97;1.10;;;;;;;-4.72;83.40;101831.22;5006518;28;20267;-70
2021/01/16 01:23:36;;;;;;;1.70;1.50;;;;;;;-4.75;82.09;101825.94;5006883;28;20480;-70
2021/01/16 01:26:02;;;;;;;2.10;1.43;;;;;;;-4.70;84.05;101822.00;5007094;28;20195;-71
2021/01/16 01:28:28;;;;;;;1.80;1.40;;;;;;;-4.72;84.15;101821.03;5004964;28;20209;-70
2021/01/16 01:30:54;;;;;;;2.10;1.53;;;;;;;-4.75;84.00;101820.88;5008415;28;20489;-71
2021/01/16 01:33:19;;;;;;;2.40;1.30;;;;;;;-4.75;83.83;101813.22;5005273;28;20209;-71
2021/01/16 01:35:46;;;;;;;1.70;1.43;;;;;;;-4.75;84.46;101813.22;5007111;28;20201;-71
2021/01/16 01:38:16;;;;;;;2.60;1.50;;;;;;;-4.76;84.85;101812.38;4999826;28;20205;-70
2021/01/16 01:40:41;;;;;;;2.17;1.53;;;;;;;-4.77;84.46;101807.19;5004710;28;20476;-70
2021/01/16 01:43:07;;;;;;;1.67;1.50;;;;;;;-4.80;83.81;101810.44;5000531;28;20523;-71
2021/01/16 01:45:33;;;;;;;2.40;1.70;;;;;;;-4.79;84.80;101808.78;5006671;28;20725;-70
2021/01/16 01:48:01;;;;;;;1.60;1.50;;;;;;;-4.81;84.57;101805.28;5010152;28;20229;-71
2021/01/16 01:50:29;;;;;;;1.97;1.50;;;;;;;-4.85;83.91;101814.41;5002495;28;20279;-70
2021/01/16 01:52:56;;;;;;;2.10;1.50;;;;;;;-4.86;84.05;101812.63;5008014;28;21127;-69
2021/01/16 01:55:23;;;;;;;2.47;1.67;;;;;;;-4.88;84.55;101815.91;5004920;28;20467;-71
2021/01/16 01:57:51;;;;;;;3.20;2.20;;;;;;;-4.86;84.61;101811.78;5003056;28;20856;-70
2021/01/16 02:00:18;;;;;;;2.33;1.53;;;;;;;-4.92;82.95;101822.50;5004197;28;20580;-69
2021/01/16 02:02:45;;;;;;;1.47;1.37;;;;;;;-4.88;85.22;101810.81;5008390;28;20480;-71
2021/01/16 02:05:12;;;;;;;1.77;1.27;;;;;;;-4.90;85.03;101812.41;5004002;28;20511;-70
2021/01/16 02:07:39;;;;;;;1.93;1.60;;;;;;;-4.93;83.99;101808.00;5006814;28;20837;-70
2021/01/16 02:10:09;;;;;;;1.67;1.57;;;;;;;-4.91;84.75;101816.59;5008050;28;20478;-70
2021/01/16 02:12:38;;;;;;;2.43;1.80;;;;;;;-4.93;84.21;101808.00;5007107;28;21120;-70
2021/01/16 02:15:15;;;;;;;1.97;1.60;;;;;;;-4.91;85.07;101805.56;5004776;28;20482;-70
2021/01/16 02:17:42;;;;;;;2.30;1.80;;;;;;;-4.92;84.74;101804.69;5003346;28;20963;-71
2021/01/16 02:20:11;;;;;;;2.37;1.67;;;;;;;-4.89;85.39;101802.31;5004338;28;20665;-70
2021/01/16 02:22:51;;;;;;;1.73;1.50;;;;;;;-4.89;85.03;101801.41;5005607;28;20477;-71
2021/01/16 02:25:26;;;;;;;2.60;1.87;;;;;;;-4.88;85.67;101798.09;5000941;28;20475;-70
2021/01/16 02:27:59;;;;;;;1.70;1.57;;;;;;;-4.89;84.88;101798.88;4998601;28;20516;-71
2021/01/16 02:30:26;;;;;;;2.07;1.40;;;;;;;-4.91;85.14;101795.38;5005462;28;20493;-70
2021/01/16 02:32:53;;;;;;;1.97;1.53;;;;;;;-4.92;84.44;101794.50;5005230;28;20455;-70
2021/01/16 02:35:21;;;;;;;2.23;1.53;;;;;;;-4.88;85.37;101798.09;5009625;28;20987;-71
2021/01/16 02:37:57;;;;;;;1.67;1.40;;;;;;;-4.89;85.60;101798.88;5007040;28;20988;-69
2021/01/16 02:40:27;;;;;;;1.50;1.37;;;;;;;-4.86;85.89;101793.97;5005826;28;20491;-70
2021/01/16 02:43:04;;;;;;;2.80;1.87;;;;;;;-4.86;85.74;101793.97;5006992;28;20572;-70
2021/01/16 02:45:33;;;;;;;2.67;1.80;;;;;;;-4.87;85.35;101795.63;5007090;28;20863;-70
2021/01/16 02:48:09;;;;;;;1.63;1.47;;;;;;;-4.85;86.25;101793.19;5005756;28;20482;-70
2021/01/16 02:50:40;;;;;;;2.17;1.87;;;;;;;-4.91;84.60;101795.38;5006807;28;20978;-70
2021/01/16 02:53:07;;;;;;;1.53;1.43;;;;;;;-4.89;85.35;101794.69;5008508;28;20516;-71
2021/01/16 02:55:33;;;;;;;1.77;1.50;;;;;;;-4.88;85.72;101790.47;5005549;28;20466;-70
2021/01/16 02:58:00;;;;;;;1.87;1.50;;;;;;;-4.90;84.82;101792.06;5008017;28;20544;-70
2021/01/16 03:00:26;;;;;;;2.83;1.77;;;;;;;-4.86;86.23;101793.97;5009155;28;21613;-70
2021/01/16 03:02:52;;;;;;;1.30;1.20;;;;;;;-4.89;85.92;101798.88;5010303;28;20480;-70
2021/01/16 03:05:18;;;;;;;2.30;1.70;;;;;;;-4.89;86.10;101794.69;5010912;28;20529;-70
2021/01/16 03:07:47;;;;;;;2.33;1.30;;;;;;;-4.93;85.21;101794.41;5008659;28;20774;-70
2021/01/16 03:10:15;;;;;;;2.17;1.77;;;;;;;-4.90;86.25;101786.97;5009952;28;20483;-71
2021/01/16 03:12:41;;;;;;;2.43;1.83;;;;;;;-4.92;85.84;101791.97;5011825;28;20960;-70
2021/01/16 03:15:10;;;;;;;2.37;1.70;;;;;;;-4.91;86.19;101787.75;5010445;28;20455;-71
2021/01/16 03:17:48;;;;;;;1.80;1.53;;;;;;;-4.93;84.86;101791.88;5010442;28;20957;-71
2021/01/16 03:20:18;;;;;;;1.87;1.50;;;;;;;-4.89;86.53;101783.59;5006958;28;20495;-70
2021/01/16 03:22:44;;;;;;;1.83;1.70;;;;;;;-4.94;84.75;101793.56;5006746;28;20483;-71
2021/01/16 03:25:11;;;;;;;1.80;1.63;;;;;;;-4.91;85.50;101786.06;5009622;28;20868;-71
2021/01/16 03:27:37;;;;;;;2.53;1.83;;;;;;;-4.92;86.24;101786.88;5010918;28;20454;-70
2021/01/16 03:30:04;;;;;;;2.53;1.87;;;;;;;-4.92;84.99;101784.34;5007237;28;20830;-70
2021/01/16 03:32:31;;;;;;;2.37;1.73;;;;;;;-4.94;85.52;101785.91;5010087;28;20475;-70
2021/01/16 03:34:57;;;;;;;2.33;1.23;;;;;;;-4.96;84.52;101783.28;5008692;28;21174;-70
2021/01/16 03:37:23;;;;;;;2.77;1.67;;;;;;;-4.98;83.94;101784.88;5008554;28;20463;-71
2021/01/16 03:39:49;;;;;;;2.23;1.60;;;;;;;-4.92;85.57;101786.88;5010625;28;20222;-70
2021/01/16 03:42:15;;;;;;;3.27;1.60;;;;;;;-4.96;84.35;101782.38;5010592;28;20236;-71
2021/01/16 03:44:41;;;;;;;3.07;1.67;;;;;;;-4.96;83.91;101784.94;5011267;28;20456;-70
2021/01/16 03:47:07;;;;;;;1.50;1.40;;;;;;;-4.96;84.52;101784.94;5006975;28;20661;-70
2021/01/16 03:49:34;;;;;;;1.60;1.37;;;;;;;-4.96;86.01;101777.28;5009382;28;20301;-70
2021/01/16 03:52:00;;;;;;;1.83;1.63;;;;;;;-4.98;85.11;101783.97;5010351;28;20185;-71
2021/01/16 03:54:26;;;;;;;1.73;1.50;;;;;;;-4.98;85.78;101782.31;5009101;28;20456;-70
2021/01/16 03:56:52;;;;;;;1.40;1.30;;;;;;;-5.02;84.73;101785.47;5007371;28;20471;-70
2021/01/16 03:59:18;;;;;;;2.87;1.43;;;;;;;-5.01;84.62;101776.19;5007153;28;20243;-71
2021/01/16 04:01:45;;;;;;;2.47;1.47;;;;;;;-5.01;84.63;101781.28;5000186;28;20201;-70
2021/01/16 04:04:11;;;;;;;1.57;1.30;;;;;;;-5.02;85.09;101779.53;5009898;28;20567;-70
2021/01/16 04:06:38;;;;;;;3.57;1.27;;;;;;;-5.02;83.88;101788.00;5009534;28;20482;-70
2021/01/16 04:09:04;;;;;;;1.97;1.50;;;;;;;-5.03;84.03;101787.94;5010037;28;20205;-69
2021/01/16 04:11:30;;;;;;;2.27;1.50;;;;;;;-4.99;85.23;101780.56;5007995;28;20526;-70
2021/01/16 04:13:56;;;;;;;1.90;1.30;;;;;;;-4.99;85.29;101782.25;5009193;28;20532;-70
2021/01/16 04:16:22;;;;;;;2.30;1.60;;;;;;;-4.98;85.36;101781.44;5008615;28;20285;-69
2021/01/16 04:18:48;;;;;;;1.73;1.57;;;;;;;-5.01;85.13;101774.53;5006046;28;20202;-70
2021/01/16 04:21:14;;;;;;;2.13;1.80;;;;;;;-5.02;84.51;101774.44;5007097;28;20845;-70
2021/01/16 04:23:40;;;;;;;2.27;1.80;;;;;;;-5.03;84.44;101767.56;5010073;28;20598;-70
2021/01/16 04:26:06;;;;;;;2.43;1.67;;;;;;;-5.02;85.00;101756.63;5010452;28;20217;-70
2021/01/16 04:28:32;;;;;;;1.60;1.47;;;;;;;-5.04;84.64;101746.38;5007270;28;20509;-70
2021/01/16 04:30:58;;;;;;;1.87;1.57;;;;;;;-5.07;84.62;101746.19;5007134;28;20221;-71
2021/01/16 04:33:24;;;;;;;1.63;1.53;;;;;;;-5.08;84.09;101752.09;5006979;28;20193;-70
2021/01/16 04:35:50;;;;;;;2.27;1.90;;;;;;;-5.10;83.62;101746.03;5010454;28;20196;-70
2021/01/16 04:38:16;;;;;;;1.70;1.50;;;;;;;-5.09;84.64;101742.69;5008039;28;20924;-71
2021/01/16 04:40:42;;;;;;;2.73;1.67;;;;;;;-5.10;84.17;101738.41;5011270;28;20261;-71
2021/01/16 04:43:09;;;;;;;1.87;1.70;;;;;;;-5.08;85.25;101733.38;5007607;28;20288;-70
2021/01/16 04:45:35;;;;;;;2.10;1.60;;;;;;;-5.08;85.38;101744.44;5009389;28;20973;-70
2021/01/16 04:48:03;;;;;;;2.20;1.50;;;;;;;-5.10;85.15;101742.59;5006420;28;20514;-71
2021/01/16 04:50:31;;;;;;;1.50;1.30;;;;;;;-5.11;84.99;101744.28;5008041;28;20581;-70
2021/01/16 04:53:01;;;;;;;2.20;1.47;;;;;;;-5.07;85.09;101737.69;5009563;28;20522;-71
2021/01/16 04:55:30;;;;;;;2.43;1.53;;;;;;;-5.07;84.70;101746.19;5001622;28;20460;-70
2021/01/16 04:58:03;;;;;;;2.73;1.70;;;;;;;-5.09;84.21;101745.22;5005493;28;20459;-71
2021/01/16 05:00:33;;;;;;;2.53;1.70;;;;;;;-5.07;84.98;101746.19;5013548;28;20725;-69
2021/01/16 05:03:03;;;;;;;2.20;1.40;;;;;;;-5.06;84.58;101742.00;5008437;28;20478;-70
2021/01/16 05:05:31;;;;;;;2.17;1.70;;;;;;;-5.07;84.64;101750.41;5003269;28;20459;-70
2021/01/16 05:07:56;;;;;;;1.50;1.40;;;;;;;-5.08;83.05;101743.56;5007447;28;20490;-71
2021/01/16 05:10:23;;;;;;;2.37;1.80;;;;;;;-5.05;84.63;101753.91;5005861;28;20483;-70
2021/01/16 05:13:02;;;;;;;1.33;1.23;;;;;;;-5.06;84.47;101752.16;5005824;28;20208;-70
2021/01/16 05:15:30;;;;;;;1.90;1.50;;;;;;;-5.07;84.23;101751.28;5008035;28;20463;-70
2021/01/16 05:18:02;;;;;;;1.60;1.47;;;;;;;-5.04;84.47;101745.50;5005339;28;20464;-71
2021/01/16 05:20:28;;;;;;;2.07;1.80;;;;;;;-5.07;83.53;101742.78;5006132;28;21347;-70
2021/01/16 05:23:11;;;;;;;3.17;2.20;;;;;;;-5.07;82.01;101752.94;5011529;28;20479;-70
2021/01/16 05:25:40;;;;;;;1.87;1.57;;;;;;;-5.02;84.51;101742.22;5007215;28;20439;-71
2021/01/16 05:28:08;;;;;;;1.50;1.40;;;;;;;-5.04;83.06;101750.59;5010157;28;20477;-70
2021/01/16 05:30:51;;;;;;;2.17;1.77;;;;;;;-5.03;83.83;101737.06;5006163;28;20490;-71
2021/01/16 05:33:18;;;;;;;2.13;1.70;;;;;;;-5.04;83.57;101735.31;5007695;28;20865;-71
2021/01/16 05:35:44;;;;;;;2.97;1.87;;;;;;;-5.05;83.11;101742.06;5007265;28;20467;-70
2021/01/16 05:38:14;;;;;;;2.33;1.90;;;;;;;-5.06;82.80;101742.88;5010376;28;20446;-70
2021/01/16 05:40:40;;;;;;;2.43;1.70;;;;;;;-5.06;82.62;101739.44;5005577;28;20475;-71
2021/01/16 05:43:07;;;;;;;3.37;2.10;;;;;;;-5.05;83.20;101741.19;5004715;28;20479;-71
2021/01/16 05:45:34;;;;;;;2.53;1.73;;;;;;;-5.05;82.80;101736.09;5006481;28;20486;-70
2021/01/16 05:48:02;;;;;;;2.83;2.23;;;;;;;-5.03;83.28;101731.97;5008256;28;20466;-71
2021/01/16 05:50:27;;;;;;;3.27;2.23;;;;;;;-5.06;82.38;101736.91;5006504;28;20483;-69
2021/01/16 05:52:53;;;;;;;1.87;1.73;;;;;;;-5.05;83.25;101725.91;5008974;28;20459;-70
2021/01/16 05:55:19;;;;;;;2.83;2.13;;;;;;;-5.08;82.66;101726.66;5008887;28;20291;-70
2021/01/16 05:57:47;;;;;;;2.30;1.60;;;;;;;-5.08;82.77;101731.72;5007806;28;20220;-70
2021/01/16 06:00:23;;;;;;;1.93;1.73;;;;;;;-5.05;84.24;101726.78;5007024;28;20231;-70
2021/01/16 06:02:51;;;;;;;2.40;1.80;;;;;;;-5.07;83.20;101720.75;5006950;28;20471;-69
2021/01/16 06:05:22;;;;;;;3.00;2.20;;;;;;;-5.08;83.00;101719.03;5006908;28;20470;-70
2021/01/16 06:07:49;;;;;;;1.83;1.60;;;;;;;-5.07;83.05;101722.44;5011064;28;20574;-70
2021/01/16 06:10:18;;;;;;;2.90;1.70;;;;;;;-5.05;84.56;101708.13;5007766;28;20488;-71
2021/01/16 06:12:44;;;;;;;2.17;1.70;;;;;;;-5.06;84.74;101703.84;5004995;28;20952;-70
2021/01/16 06:15:14;;;;;;;2.67;2.07;;;;;;;-5.07;84.65;101702.94;5006758;28;20466;-70
2021/01/16 06:17:45;;;;;;;2.53;1.90;;;;;;;-5.07;84.89;101704.63;5007353;28;20554;-70
2021/01/16 06:20:13;;;;;;;2.73;2.07;;;;;;;-5.06;85.31;101693.66;5007349;28;20506;-71
2021/01/16 06:22:41;;;;;;;2.77;1.90;;;;;;;-5.08;85.20;101703.75;5006437;28;20541;-71
2021/01/16 06:25:18;;;;;;;2.97;2.23;;;;;;;-5.07;85.36;101695.31;5008604;28;20451;-70
2021/01/16 06:27:45;;;;;;;3.47;2.33;;;;;;;-5.05;85.71;101687.78;5003956;28;20463;-71
2021/01/16 06:30:14;;;;;;;2.57;1.93;;;;;;;-5.02;87.35;101686.25;5008711;28;20483;-71
2021/01/16 06:32:48;;;;;;;2.70;2.20;;;;;;;-5.05;86.71;101682.69;5005033;28;20479;-70
2021/01/16 06:35:15;;;;;;;3.73;2.63;;;;;;;-5.05;86.50;101692.84;5007610;28;20446;-70
2021/01/16 06:37:45;;;;;;;4.47;2.63;;;;;;;-5.03;87.66;101686.19;5008986;28;20966;-70
2021/01/16 06:40:13;;;;;;;4.37;2.80;;;;;;;-5.07;87.46;101690.22;5007498;28;20483;-70
2021/01/16 06:42:40;;;;;;;5.73;2.83;;;;;;;-5.07;87.65;101690.22;5003623;28;21693;-71
2021/01/16 06:45:07;;;;;;;4.20;2.53;;;;;;;-5.02;88.91;101691.34;5008256;28;20455;-70
2021/01/16 06:47:34;;;;;;;4.77;2.50;;;;;;;-5.06;88.12;101688.59;5009546;28;20477;-70
2021/01/16 06:50:03;;;;;;;3.20;2.23;;;;;;;-5.04;88.83;101682.78;4999691;28;20480;-71
2021/01/16 06:52:33;;;;;;;3.43;2.27;;;;;;;-5.04;89.32;101687.00;5006225;28;20506;-70
2021/01/16 06:54:59;;;;;;;3.90;2.27;;;;;;;-5.05;89.12;101685.22;5005251;28;20453;-70
2021/01/16 06:57:25;;;;;;;2.73;2.33;;;;;;;-5.08;89.46;101685.94;5008866;28;21293;-70
2021/01/16 06:59:59;;;;;;;3.60;2.50;;;;;;;-5.10;89.29;101689.19;5004201;28;20539;-70
2021/01/16 07:02:28;;;;;;;3.27;2.23;;;;;;;-5.05;90.40;101680.13;5004170;28;20471;-70
2021/01/16 07:04:55;;;;;;;3.87;2.47;;;;;;;-5.10;89.75;101685.00;5006663;28;20470;-71
2021/01/16 07:07:29;;;;;;;2.67;2.20;;;;;;;-5.07;90.39;101676.66;5004197;28;20459;-69
2021/01/16 07:10:00;;;;;;;3.83;2.27;;;;;;;-5.06;90.58;101678.41;4997390;28;20473;-71
2021/01/16 07:12:26;;;;;;;2.70;2.30;;;;;;;-5.07;90.28;101686.81;5003930;28;20501;-71
2021/01/16 07:14:52;;;;;;;3.37;2.40;;;;;;;-5.08;90.55;101679.97;5002406;28;20839;-70
2021/01/16 07:17:21;;;;;;;3.13;2.23;;;;;;;-5.06;90.89;101681.81;5007633;28;20514;-70
2021/01/16 07:19:47;;;;;;;3.73;2.43;;;;;;;-5.07;90.75;101676.66;5003164;28;20216;-71
2021/01/16 07:22:13;;;;;;;2.53;2.10;;;;;;;-5.04;91.15;101671.72;4998653;28;20511;-69
2021/01/16 07:24:40;;;;;;;3.33;2.47;;;;;;;-5.01;91.41;101685.50;5006690;28;20205;-70
2021/01/16 07:27:07;;;;;;;4.60;2.50;;;;;;;-4.99;91.59;101683.03;5007221;28;20968;-69
2021/01/16 07:29:38;;;;;;;3.63;2.53;;;;;;;-5.02;91.41;101678.63;5004575;28;20984;-70
2021/01/16 07:32:14;;;;;;;2.47;2.13;;;;;;;-5.01;90.91;101682.94;5006121;28;20881;-71
2021/01/16 07:34:43;;;;;;;4.33;2.67;;;;;;;-4.98;91.49;101675.47;5008153;28;20509;-70
2021/01/16 07:37:10;;;;;;;3.43;2.43;;;;;;;-4.93;91.93;101675.72;5009106;28;20456;-70
2021/01/16 07:39:38;;;;;;;4.07;2.80;;;;;;;-4.98;91.25;101666.97;5008196;28;20498;-71
2021/01/16 07:42:10;;;;;;;5.93;3.17;;;;;;;-4.95;91.56;101670.53;5009942;28;20453;-71
2021/01/16 07:44:41;;;;;;;3.87;2.80;;;;;;;-4.94;91.24;101671.44;5004301;28;20817;-70
2021/01/16 07:47:17;;;;;;;3.20;2.90;;;;;;;-4.92;91.35;101666.41;5009706;28;20864;-70
2021/01/16 07:49:53;;;;;;;3.23;2.70;;;;;;;-4.87;92.07;101658.25;5010788;28;21011;-70
2021/01/16 07:52:23;;;;;;;4.03;2.70;;;;;;;-4.84;92.37;101657.53;5006805;28;20798;-70
2021/01/16 07:55:03;;;;;;;3.13;2.43;;;;;;;-4.82;91.80;101653.38;5009817;28;20458;-69
2021/01/16 07:57:31;;;;;;;4.67;2.43;;;;;;;-4.74;92.52;101653.81;5008435;28;20459;-70
2021/01/16 08:00:04;;;;;;;3.73;2.60;;;;;;;-4.73;92.61;101655.53;5010118;28;20529;-70
2021/01/16 08:02:31;;;;;;;4.13;2.97;;;;;;;-4.74;92.31;101662.31;5007979;28;21023;-69
2021/01/16 08:05:24;;;;;;;4.90;2.80;;;;;;;-4.77;91.93;101659.59;5011980;28;20816;-70
2021/01/16 08:08:13;;;;;;;4.30;2.87;;;;;;;-4.73;92.38;101656.44;5007060;28;20974;-69
2021/01/16 08:10:42;;;;;;;4.97;2.83;;;;;;;-4.72;92.06;101659.84;5001010;28;20854;-71
2021/01/16 08:13:10;;;;;;;4.00;2.90;;;;;;;-4.70;92.76;101645.53;5008882;28;20459;-70
2021/01/16 08:15:40;;;;;;;4.37;3.07;;;;;;;-4.68;92.81;101647.34;5011430;28;20939;-71
2021/01/16 08:18:12;;;;;;;4.33;2.90;;;;;;;-4.67;92.58;101648.25;5007702;28;20464;-70
2021/01/16 08:20:40;;;;;;;3.30;2.80;;;;;;;-4.66;92.91;101650.88;5010874;28;20495;-71
2021/01/16 08:23:10;;;;;;;3.40;2.57;;;;;;;-4.67;92.76;101641.47;5007213;28;20530;-70
2021/01/16 08:25:36;;;;;;;5.73;3.33;;;;;;;-4.67;92.99;101638.06;5010499;28;20443;-71
2021/01/16 08:28:04;;;;;;;4.00;3.13;;;;;;;-4.66;92.92;101633.06;5007003;28;20548;-70
2021/01/16 08:30:32;;;;;;;5.40;3.30;;;;;;;-4.63;93.39;101629.78;5010789;28;20213;-70
2021/01/16 08:33:01;;;;;;;4.73;2.73;;;;;;;-4.61;93.09;101633.28;5003797;28;21155;-70
2021/01/16 08:35:29;;;;;;;4.97;3.50;;;;;;;-4.59;93.04;101629.13;5013926;28;20453;-71
2021/01/16 08:38:26;;;;;;;5.40;4.03;;;;;;;-4.55;93.24;101625.09;5006407;28;20812;-70
2021/01/16 08:40:55;;;;;;;5.50;4.03;;;;;;;-4.50;93.19;101628.72;5005215;28;20506;-70
2021/01/16 08:43:30;;;;;;;7.00;4.30;;;;;;;-4.51;92.73;101630.41;5008179;28;20495;-70
2021/01/16 08:46:13;;;;;;;5.83;3.13;;;;;;;-4.52;92.28;101626.13;5007964;28;20450;-71
2021/01/16 08:48:40;;;;;;;4.80;3.77;;;;;;;-4.40;92.79;101630.94;5008170;28;20809;-70
2021/01/16 08:51:29;;;;;;;5.87;4.00;;;;;;;-4.37;92.30;101616.69;4997354;28;20492;-70
2021/01/16 08:54:12;;;;;;;6.23;3.97;;;;;;;-4.31;92.37;101620.34;4986761;28;20495;-71
2021/01/16 08:56:39;;;;;;;5.43;4.23;;;;;;;-4.29;91.79;101614.56;4987832;28;20467;-70
2021/01/16 08:59:19;;;;;;;6.80;4.03;;;;;;;-4.26;91.57;101622.31;4988190;28;20895;-71
2021/01/16 09:01:46;;;;;;;4.57;3.20;;;;;;;-4.26;91.81;101619.78;4990817;28;20457;-69
2021/01/16 09:04:17;;;;;;;5.30;3.30;;;;;;;-4.20;91.81;101617.56;4985074;28;20474;-70
2021/01/16 09:06:43;;;;;;;4.40;3.47;;;;;;;-4.23;90.90;101611.44;4989641;28;20541;-70
2021/01/16 09:09:10;;;;;;;5.43;3.23;;;;;;;-4.21;90.79;101614.94;4990499;28;20466;-69
2021/01/16 09:11:37;;;;;;;6.43;3.20;;;;;;;-4.17;91.49;101611.72;4999195;28;20215;-70
2021/01/16 09:14:04;;;;;;;6.93;3.87;;;;;;;-4.10;91.60;101613.75;4986892;28;20941;-69
2021/01/16 09:16:31;;;;;;;5.17;3.50;;;;;;;-4.15;90.86;101616.91;4979966;28;20478;-71
2021/01/16 09:18:57;;;;;;;4.20;3.10;;;;;;;-4.10;91.69;101612.91;4986120;28;20461;-71
2021/01/16 09:21:24;;;;;;;5.07;3.50;;;;;;;-4.08;90.79;101616.41;4982713;28;20464;-70
2021/01/16 09:23:51;;;;;;;4.17;3.20;;;;;;;-4.00;91.29;101620.22;4980421;28;20483;-70
2021/01/16 09:26:18;;;;;;;5.50;3.60;;;;;;;-4.04;91.19;101616.63;4989911;28;20458;-70
2021/01/16 09:28:52;;;;;;;6.47;3.77;;;;;;;-4.03;91.03;101620.03;4987006;28;20464;-71
2021/01/16 09:31:24;;;;;;;5.37;3.17;;;;;;;-4.05;91.26;101621.66;4991619;28;20704;-71
2021/01/16 09:33:52;;;;;;;5.07;3.20;;;;;;;-4.02;90.64;101619.25;4986670;28;20470;-70
2021/01/16 09:36:50;;;;;;;4.93;3.03;;;;;;;-3.97;91.52;101607.63;4987933;28;20619;-71
2021/01/16 09:39:23;;;;;;;5.87;3.37;;;;;;;-3.93;91.38;101604.41;4963815;28;20845;-70
2021/01/16 09:41:50;;;;;;;6.30;3.43;;;;;;;-3.90;91.52;101601.16;4976772;28;20474;-70
2021/01/16 09:45:02;;;;;;;6.13;4.23;;;;;;;-3.92;91.46;101590.88;4986660;28;21195;-71
2021/01/16 09:47:49;;;;;;;10.77;6.23;;;;;;;-3.86;90.78;101597.94;4980225;28;20974;-70
2021/01/16 09:50:16;;;;;;;15.20;8.80;;;;;;;-3.84;91.18;101602.31;4986273;28;20836;-71
2021/01/16 09:53:04;;;;;;;13.77;8.30;;;;;;;-3.78;91.24;101594.09;4989606;28;20508;-70
2021/01/16 09:55:34;;;;;;;9.97;6.93;;;;;;;-3.75;90.99;101583.16;4988160;28;20494;-70
2021/01/16 09:58:01;;;;;;;5.63;3.63;;;;;;;-3.78;91.09;101586.44;4988936;28;20454;-70
2021/01/16 10:00:33;;;;;;;5.33;4.30;;;;;;;-3.70;91.31;101579.16;4988667;28;20480;-71
2021/01/16 10:03:02;;;;;;;4.90;3.13;;;;;;;-3.64;90.90;101571.78;4999594;28;20507;-70
2021/01/16 10:05:31;;;;;;;5.70;3.93;;;;;;;-3.66;90.51;101563.19;4987037;28;20471;-70
2021/01/16 10:07:58;;;;;;;5.60;4.03;;;;;;;-3.58;90.17;101572.09;4987380;28;20525;-70
2021/01/16 10:10:25;;;;;;;5.20;3.50;;;;;;;-3.50;90.23;101573.31;4981917;28;20576;-71
2021/01/16 10:12:57;;;;;;;8.17;3.70;;;;;;;-3.46;90.34;101574.34;4988428;28;20808;-70
2021/01/16 10:15:27;;;;;;;4.93;3.37;;;;;;;-3.41;89.88;101567.78;4984232;28;20477;-71
2021/01/16 10:17:55;;;;;;;6.20;3.43;;;;;;;-3.47;90.09;101564.94;4986559;28;20473;-70
2021/01/16 10:20:21;;;;;;;5.27;3.53;;;;;;;-3.46;90.21;101561.59;4988764;28;20486;-70
2021/01/16 10:22:52;;;;;;;5.67;3.40;;;;;;;-3.46;89.85;101564.13;4988298;28;20484;-70
2021/01/16 10:25:19;;;;;;;7.50;4.63;;;;;;;-3.43;89.97;101560.06;5003053;28;20493;-71
2021/01/16 10:27:49;;;;;;;5.47;3.87;;;;;;;-3.38;89.93;101557.69;4986225;28;20458;-70
2021/01/16 10:30:20;;;;;;;5.70;3.73;;;;;;;-3.35;89.49;101547.63;4986640;28;20474;-71
2021/01/16 10:32:48;;;;;;;5.53;3.23;;;;;;;-3.29;89.71;101541.94;4988847;28;20560;-71
2021/01/16 10:35:21;;;;;;;6.20;3.53;;;;;;;-3.28;88.65;101534.34;4987158;28;20466;-70
2021/01/16 10:37:47;;;;;;;6.03;3.33;;;;;;;-3.27;88.75;101548.00;4988113;28;20471;-70
2021/01/16 10:40:13;;;;;;;5.97;3.57;;;;;;;-3.30;88.56;101530.88;4989876;28;20489;-70
2021/01/16 10:42:42;;;;;;;6.10;3.83;;;;;;;-3.25;88.95;101529.38;4987798;28;20487;-71
2021/01/16 10:45:10;;;;;;;5.87;4.33;;;;;;;-3.26;88.37;101525.09;4986902;28;21119;-70
2021/01/16 10:47:38;;;;;;;7.50;4.57;;;;;;;-3.26;88.26;101522.53;4987670;28;21045;-70
2021/01/16 10:50:07;;;;;;;6.30;3.80;;;;;;;-3.28;88.03;101526.69;4980437;28;20480;-70
2021/01/16 10:52:33;;;;;;;5.33;3.97;;;;;;;-3.24;88.15;101522.59;4982660;28;20456;-70
2021/01/16 10:55:00;;;;;;;7.67;4.07;;;;;;;-3.21;88.08;101526.97;4982345;28;20459;-71
2021/01/16 10:57:44;;;;;;;9.33;4.03;;;;;;;-3.27;87.76;101523.34;4983515;28;20570;-70
2021/01/16 11:00:13;;;;;;;6.10;3.73;;;;;;;-3.26;88.15;101516.56;4985958;28;20536;-70
2021/01/16 11:02:41;;;;;;;6.03;3.80;;;;;;;-3.24;87.67;101513.28;4987373;28;20495;-70
2021/01/16 11:05:26;;;;;;;6.50;4.50;;;;;;;-3.26;88.11;101508.91;4984676;28;20476;-70
2021/01/16 11:07:55;;;;;;;7.13;4.57;;;;;;;-3.31;87.71;101510.38;4991693;28;20570;-70
2021/01/16 11:10:29;;;;;;;10.20;5.70;;;;;;;-3.28;88.02;101511.38;4991580;28;20889;-70
2021/01/16 11:12:55;;;;;;;33.77;13.27;;;;;;;-3.25;88.02;101500.47;4991428;28;20459;-70
2021/01/16 11:15:26;;;;;;;30.43;14.37;;;;;;;-3.36;87.96;101492.34;4992938;28;20463;-70
2021/01/16 11:17:56;;;;;;;19.03;9.73;;;;;;;-3.34;88.51;101483.09;4990403;28;20845;-70
2021/01/16 11:20:25;;;;;;;9.13;5.50;;;;;;;-3.37;88.48;101484.63;4992843;28;20658;-70
2021/01/16 11:23:25;;;;;;;6.30;4.23;;;;;;;-3.38;88.05;101481.19;4989890;28;20486;-70
2021/01/16 11:25:51;;;;;;;7.47;4.47;;;;;;;-3.37;88.17;101479.53;4989392;28;20458;-70
2021/01/16 11:28:21;;;;;;;6.50;4.47;;;;;;;-3.39;88.05;101474.34;4984306;28;20964;-69
2021/01/16 11:30:49;;;;;;;11.43;4.43;;;;;;;-3.32;88.26;101471.25;4993304;28;20233;-70
2021/01/16 11:33:17;;;;;;;7.30;4.60;;;;;;;-3.31;88.63;101470.44;4989817;28;20469;-71